METAR KRWI 192353Z AUTO 36006KT 4SM -FZRA BR OVC004 01/01 A3011 RMK AO2 RAE2256B24E29FZRAB2256 SLP197 P0005 60036 T00060006 10017 20006 58007 
SPECI KRWI 192302Z AUTO 35005KT 4SM -FZRA BR OVC004 01/01 A3013 RMK AO2 RAE2256FZRAB2256 P0001 
METAR KRWI 192253Z AUTO 35004KT 4SM -RA BR OVC004 01/01 A3012 RMK AO2 RAB18E23B51FZRAE51 SLP201 P0006 T00060006 
METAR KRWI 192153Z AUTO 01004KT 5SM -FZRA BR OVC004 01/01 A3012 RMK AO2 RAB13E18B46E50 SLP201 P0007 T00060006 
SPECI KRWI 192128Z AUTO 01003KT 3SM -FZRA BR OVC004 01/01 A3014 RMK AO2 RAB13E18 P0005 
SPECI KRWI 192119Z AUTO 35004KT 2 1/2SM -FZRA BR OVC004 01/01 A3014 RMK AO2 RAB13E18 P0004 
SPECI KRWI 192119Z AUTO 35004KT 2 1/2SM -FZRA BR OVC004 01/01 A3014 RMK AO2 RAB13E18 P0004 
METAR KRWI 192053Z AUTO 36005KT 3SM -FZRA BR OVC004 01/01 A3013 RMK AO2 RAB41E45FZRAE06B45SNB06E41 SLP204 P0009 60018 T00060006 56023 
SPECI KRWI 192044Z AUTO 35006KT 2 1/2SM RA BR OVC004 01/01 A3014 RMK AO2 RAB41FZRAE06SNB06E41 P0008 
SPECI KRWI 192033Z AUTO 35005KT 1 3/4SM -SN BR OVC004 01/01 A3013 RMK AO2 FZRAE06SNB06 P0006 
SPECI KRWI 192014Z AUTO 36005KT 2 1/2SM -SN BR OVC004 01/01 A3015 RMK AO2 FZRAE06SNB06 P0003 
SPECI KRWI 192006Z AUTO 34004KT 3SM -SN BR OVC004 01/01 A3016 RMK AO2 FZRAE06SNB06 P0002 
METAR KRWI 191953Z AUTO 35004KT 2 1/2SM -FZRA BR OVC004 01/01 A3015 RMK AO2 RAB11E16B44E48 SLP209 P0005 T00110011 
SPECI KRWI 191943Z AUTO 36005KT 2 1/2SM -FZRA BR OVC002 01/01 A3014 RMK AO2 RAB11E16 P0004 
SPECI KRWI 191924Z AUTO 01003KT 3SM -FZRA BR OVC002 01/01 A3014 RMK AO2 RAB11E16 P0002 
METAR KRWI 191853Z AUTO 00000KT 2 1/2SM -FZRA BR BKN002 01/01 A3014 RMK AO2 RAB39E43FZRAB43SNE39 SLP207 P0004 T00110011 
SPECI KRWI 191843Z AUTO 00000KT 2 1/2SM -FZRA BR BKN002 BKN012 01/01 A3013 RMK AO2 RAB39E43FZRAB43SNE39 P0004 
SPECI KRWI 191802Z AUTO 36005KT 1 3/4SM -SN BR BKN004 OVC014 01/01 A3018 RMK AO2 PRESFR P0000 
METAR KRWI 191753Z AUTO 35004KT 2 1/2SM -SN BR FEW004 OVC014 02/02 A3020 RMK AO2 RAB1659E03FZRAB03E29SNE1659B29 SLP228 P0003 60017 T00170017 10056 20011 58007 
SPECI KRWI 191732Z AUTO 02005KT 2 1/2SM -SN BR BKN022 BKN046 01/01 A3021 RMK AO2 RAB1659E03FZRAB03E29SNE1659B29 P0001 
SPECI KRWI 191716Z AUTO 03005KT 4SM -FZRA BR SCT025 BKN065 01/01 A3021 RMK AO2 RAB1659E03FZRAB03SNE1659 P0001 
SPECI KRWI 191706Z AUTO 04005KT 3SM -FZRA BR BKN014 01/01 A3021 RMK AO2 RAB1659E03FZRAB03SNE1659 P0001 
SPECI KRWI 191703Z AUTO 03005KT 2 1/2SM -FZRA BR FEW005 BKN016 01/01 A3020 RMK AO2 RAB1659E03FZRAB03SNE1659 P0000 
METAR KRWI 191653Z AUTO 04006KT 1 1/2SM -SN BR FEW005 OVC016 01/01 A3019 RMK AO2 RAB15E20FZRAE00B20E42SNB00E15B42 PRESFR SLP226 P0006 T00110011 
SPECI KRWI 191645Z AUTO 03007KT 2 1/2SM -SN BR BKN016 OVC047 02/02 A3021 RMK AO2 RAB15E20FZRAE00B20E42SNB00E15B42 PRESFR P0004 
SPECI KRWI 191639Z AUTO 02007KT 4SM -FZRA BR BKN024 OVC047 02/02 A3022 RMK AO2 RAB15E20FZRAE00B20SNB00E15 P0003 
SPECI KRWI 191626Z AUTO 01007KT 3SM -FZRA BR FEW016 OVC047 02/02 A3024 RMK AO2 RAB15E20FZRAE00B20SNB00E15 P0002 
SPECI KRWI 191606Z AUTO 02007KT 4SM -SN BR FEW016 OVC047 03/02 A3022 RMK AO2 FZRAE00SNB00 P0001 
METAR KRWI 191553Z AUTO 03004KT 5SM -FZRA BR FEW027 BKN047 OVC060 02/02 A3023 RMK AO2 RAE48UPB44E45FZRAB48SNB32E44 SLP236 P0003 T00220017 
METAR KRWI 191453Z AUTO 01006KT 6SM -RA BR FEW040 OVC060 03/02 A3022 RMK AO2 SLP233 P0003 60005 T00330017 53016 
METAR KRWI 191353Z AUTO 00000KT 5SM -RA BR BKN033 04/02 A3018 RMK AO2 RAB1259 SLP222 P0002 T00390017 
METAR KRWI 191253Z AUTO 02005KT 10SM BKN039 BKN060 06/M01 A3018 RMK AO2 SLP220 T00561006 
METAR KRWI 191153Z AUTO 34003KT 10SM OVC065 05/00 A3017 RMK AO2 SLP217 T00500000 10056 20050 55006 
METAR KRWI 191053Z AUTO 00000KT 10SM BKN065 OVC080 05/01 A3017 RMK AO2 SLP215 T00500006 
METAR KRWI 190953Z AUTO 00000KT 10SM BKN070 BKN090 05/01 A3017 RMK AO2 SLP216 T00500006 
METAR KRWI 190853Z AUTO 29005KT 10SM OVC070 06/00 A3019 RMK AO2 SLP223 T00560000 51011 
METAR KRWI 190753Z AUTO 22003KT 10SM BKN070 OVC090 06/00 A3016 RMK AO2 SLP213 T00560000 
METAR KRWI 190653Z AUTO VRB03KT 10SM BKN070 OVC085 06/00 A3019 RMK AO2 SLP224 T00560000 
METAR KRWI 190553Z AUTO 22003KT 10SM FEW095 04/01 A3016 RMK AO2 SLP212 T00440011 10056 20044 50003 
METAR KRWI 190453Z AUTO 26003KT 10SM CLR 04/01 A3016 RMK AO2 SLP213 T00440011 400671022 
METAR KRWI 190353Z AUTO 23004KT 10SM FEW110 05/01 A3017 RMK AO2 SLP217 T00500011 
METAR KRWI 190253Z AUTO 00000KT 10SM FEW085 05/02 A3015 RMK AO2 PRESFR SLP209 T00500022 58009 
METAR KRWI 190153Z AUTO 00000KT 10SM FEW090 05/02 A3020 RMK AO2 SLP226 T00500022 
METAR KRWI 190053Z AUTO 00000KT 10SM CLR 04/02 A3017 RMK AO2 SLP219 T00440022 
METAR KRWI 182353Z AUTO 00000KT 10SM CLR 05/02 A3018 RMK AO2 SLP219 T00500022 10067 20044 55005 
METAR KRWI 182253Z AUTO 00000KT 10SM CLR 05/02 A3015 RMK AO2 SLP210 T00500017 
METAR KRWI 182153Z AUTO 00000KT 10SM CLR 06/01 A3019 RMK AO2 SLP224 T00560011 
METAR KRWI 182053Z AUTO 25003KT 10SM CLR 07/M03 A3019 RMK AO2 SLP224 T00671028 58005 
METAR KRWI 181953Z AUTO 25003KT 10SM CLR 07/M03 A3021 RMK AO2 SLP230 T00671033 
METAR KRWI 181853Z AUTO 00000KT 10SM CLR 07/M04 A3019 RMK AO2 SLP224 T00671044 
METAR KRWI 181753Z AUTO VRB03KT 10SM CLR 07/M04 A3020 RMK AO2 SLP228 T00671039 10067 21022 58026 
METAR KRWI 181653Z AUTO 28004KT 10SM CLR 06/M04 A3025 RMK AO2 SLP243 T00611044 
METAR KRWI 181553Z AUTO VRB04KT 10SM CLR 06/M04 A3027 RMK AO2 SLP252 T00561044 
METAR KRWI 181453Z AUTO 06007KT 10SM CLR 05/M04 A3028 RMK AO2 SLP255 T00501044 51010 
METAR KRWI 181353Z AUTO 33004KT 10SM CLR 04/M03 A3028 RMK AO2 SLP253 T00391033 
METAR KRWI 181253Z AUTO 01004KT 10SM CLR 01/M04 A3026 RMK AO2 SLP247 T00111039 
METAR KRWI 181153Z AUTO 00000KT 10SM CLR M02/M05 A3025 RMK AO2 SLP245 70001 T10171050 10033 21017 53020 
METAR KRWI 181053Z AUTO 36005KT 10SM CLR 00/M04 A3022 RMK AO2 SLP233 T00001044 
METAR KRWI 180953Z AUTO 32003KT 10SM CLR 01/M05 A3021 RMK AO2 SLP231 T00111050 
METAR KRWI 180853Z AUTO 35003KT 10SM CLR 01/M04 A3019 RMK AO2 SLP224 T00111044 51016 
METAR KRWI 180753Z AUTO 34005KT 10SM CLR 01/M04 A3019 RMK AO2 SLP222 T00111039 
METAR KRWI 180653Z AUTO 03004KT 10SM CLR 02/M04 A3017 RMK AO2 SLP216 T00171039 
METAR KRWI 180553Z AUTO 36007KT 10SM CLR 03/M04 A3015 RMK AO2 SLP208 T00331039 10089 20033 53027 
METAR KRWI 180453Z AUTO 35007KT 10SM CLR 05/M03 A3012 RMK AO2 SLP199 T00501033 401170044 
METAR KRWI 180353Z AUTO 34007KT 10SM CLR 06/M02 A3009 RMK AO2 SLP190 T00611022 
METAR KRWI 180253Z AUTO 34008KT 10SM CLR 07/01 A3007 RMK AO2 SLP181 T00720011 53035 
METAR KRWI 180153Z AUTO 28005KT 9SM CLR 08/07 A3002 RMK AO2 SLP166 T00780072 
METAR KRWI 180053Z AUTO 27004KT 9SM CLR 09/08 A3000 RMK AO2 SLP159 T00890083 
METAR KRWI 172353Z AUTO 24005KT 9SM CLR 08/08 A2996 RMK AO2 PRESRR SLP146 T00830078 10117 20083 53029 
METAR KRWI 172253Z AUTO 24004KT 10SM CLR 09/08 A2992 RMK AO2 SLP133 T00940083 
METAR KRWI 172153Z AUTO 24004KT 10SM CLR 11/09 A2989 RMK AO2 SLP123 T01060089 
METAR KRWI 172053Z AUTO 25006KT 10SM CLR 11/09 A2987 RMK AO2 SLP116 T01110089 53013 
METAR KRWI 171953Z AUTO 26005KT 10SM CLR 12/09 A2986 RMK AO2 SLP110 T01170089 
METAR KRWI 171853Z AUTO 27005KT 10SM CLR 12/09 A2984 RMK AO2 SLP106 T01170094 $ 
METAR KRWI 171753Z AUTO 28005KT 10SM FEW049 SCT060 SCT090 11/09 A2984 RMK AO2 SLP103 60001 T01110094 10111 20083 58018 
METAR KRWI 171653Z AUTO 26007KT 10SM FEW010 OVC041 11/09 A2986 RMK AO2 SLP111 T01060094 
METAR KRWI 171553Z AUTO 26008KT 10SM SCT009 OVC039 10/09 A2988 RMK AO2 SLP117 T01000089 
METAR KRWI 171453Z AUTO 26006KT 8SM OVC009 09/09 A2989 RMK AO2 CIG 006V011 SLP122 60001 T00940089 50006 
SPECI KRWI 171420Z AUTO 23006KT 7SM BKN009 OVC039 09/09 A2989 RMK AO2 CIG 006V010 
METAR KRWI 171353Z AUTO 24006KT 6SM BR SCT009 OVC039 09/09 A2990 RMK AO2 RAB27E37 SLP125 P0000 T00890089 
METAR KRWI 171253Z AUTO 24006KT 6SM BR OVC009 08/08 A2989 RMK AO2 RAE15 CIG 005V012 SLP121 P0001 T00830083 
SPECI KRWI 171221Z AUTO 23006KT 5SM BR BKN007 OVC021 08/08 A2987 RMK AO2 RAE15 P0001 
METAR KRWI 171153Z AUTO 24008KT 5SM -RA BR FEW009 BKN020 OVC060 08/08 A2987 RMK AO2 RAB1054E20B40 SLP115 P0000 60003 70003 T00830083 10100 20078 53000 
METAR KRWI 171053Z AUTO 24008KT 10SM BKN024 OVC030 09/08 A2987 RMK AO2 RAE13 SLP115 P0001 T00890078 
METAR KRWI 170953Z AUTO 21007KT 8SM -RA OVC032 08/07 A2986 RMK AO2 RAE26B44 SLP111 P0000 T00830072 
METAR KRWI 170853Z AUTO 23003KT 10SM -RA SCT036 BKN070 OVC095 08/07 A2987 RMK AO2 RAE08B28 SLP115 P0001 60002 T00830072 55004 $ 
METAR KRWI 170753Z AUTO 21003KT 10SM -RA SCT070 OVC090 08/07 A2987 RMK AO2 RAB25 SLP114 P0001 T00830072 $ 
METAR KRWI 170653Z AUTO 18003KT 10SM FEW110 08/07 A2986 RMK AO2 SLP111 T00830067 
METAR KRWI 170553Z AUTO 00000KT 10SM FEW085 10/06 A2988 RMK AO2 SLP119 60000 T01000056 10100 20083 56028 
METAR KRWI 170453Z AUTO 00000KT 10SM FEW090 09/06 A2989 RMK AO2 SLP121 T00940061 401281028 
METAR KRWI 170353Z AUTO 19003KT 10SM CLR 09/06 A2992 RMK AO2 SLP133 T00890061 
METAR KRWI 170253Z AUTO 00000KT 10SM BKN065 BKN090 OVC120 08/07 A2997 RMK AO2 RAB07E18 SLP147 P0000 60000 T00830072 58011 
METAR KRWI 170153Z AUTO 00000KT 10SM OVC065 09/07 A2998 RMK AO2 SLP153 T00890072 
METAR KRWI 170053Z AUTO 00000KT 10SM BKN070 OVC090 09/08 A3000 RMK AO2 RAB05E39 SLP157 P0000 T00890078 
METAR KRWI 162353Z AUTO 00000KT 10SM BKN075 OVC100 09/07 A3000 RMK AO2 SLP160 60000 T00940067 10128 20083 55009 
METAR KRWI 162253Z AUTO 00000KT 10SM OVC090 09/07 A3000 RMK AO2 RAB04E40 SLP159 P0000 T00890072 
METAR KRWI 162153Z AUTO 21003KT 10SM OVC085 10/04 A3001 RMK AO2 RAE01 SLP161 P0000 T01000044 
METAR KRWI 162053Z AUTO 23004KT 10SM -RA OVC090 11/04 A3003 RMK AO2 RAB40 SLP168 P0000 60000 T01060039 55007